createdAt,value
2023-05-03T00:02:10.433Z,9.40
2023-05-03T00:04:37.549Z,9.30
2023-05-03T00:07:04.761Z,9.30
2023-05-03T00:09:33.434Z,9.20
2023-05-03T00:12:01.259Z,9.20
2023-05-03T00:14:28.554Z,9.10
2023-05-03T00:16:55.736Z,9.10
2023-05-03T00:19:31.568Z,9.10
2023-05-03T00:21:59.543Z,9.10
2023-05-03T00:24:27.160Z,9.00
2023-05-03T00:26:53.977Z,9.10
2023-05-03T00:29:22.883Z,9.00
2023-05-03T00:31:49.724Z,9.00
2023-05-03T00:34:16.645Z,8.90
2023-05-03T00:36:43.391Z,9.00
2023-05-03T00:39:10.648Z,8.90
2023-05-03T00:41:38.905Z,8.90
2023-05-03T00:44:06.012Z,8.90
2023-05-03T00:46:32.752Z,8.90
2023-05-03T00:48:59.432Z,8.80
2023-05-03T00:51:28.012Z,8.80
2023-05-03T00:53:55.057Z,8.70
2023-05-03T00:56:23.579Z,8.70
2023-05-03T00:58:53.509Z,8.60
2023-05-03T01:01:20.359Z,8.60
2023-05-03T01:03:48.198Z,8.60
2023-05-03T01:39:22.988Z,8.30
2023-05-03T01:41:51.719Z,8.10
2023-05-03T01:44:19.475Z,8.10
2023-05-03T01:46:47.104Z,8.00
2023-05-03T01:49:13.965Z,8.00
2023-05-03T01:51:40.770Z,8.00
2023-05-03T01:54:07.812Z,8.00
2023-05-03T01:56:36.658Z,8.00
2023-05-03T01:59:04.098Z,7.90
2023-05-03T02:01:31.035Z,7.90
2023-05-03T02:03:57.840Z,7.90
2023-05-03T02:06:26.148Z,7.90
2023-05-03T02:08:54.424Z,7.90
2023-05-03T02:11:21.729Z,7.80
2023-05-03T02:13:50.708Z,7.80
2023-05-03T02:16:20.982Z,7.80
2023-05-03T02:18:48.452Z,7.80
2023-05-03T02:21:15.378Z,7.70
2023-05-03T02:23:42.132Z,7.50
2023-05-03T02:26:08.828Z,7.50
2023-05-03T02:28:35.828Z,7.40
2023-05-03T02:31:02.862Z,7.40
2023-05-03T02:33:29.702Z,7.30
2023-05-03T02:35:56.581Z,7.40
2023-05-03T02:38:23.842Z,7.40
2023-05-03T02:40:50.828Z,7.20
2023-05-03T02:43:17.611Z,7.10
2023-05-03T02:45:44.622Z,7.10
2023-05-03T02:48:11.370Z,7.10
2023-05-03T02:50:39.307Z,7.00
2023-05-03T02:53:06.133Z,7.00
2023-05-03T02:55:32.952Z,6.90
2023-05-03T02:58:00.123Z,6.90
2023-05-03T03:00:27.045Z,6.80
2023-05-03T03:02:53.907Z,6.80
2023-05-03T03:05:20.968Z,6.80
2023-05-03T03:07:47.775Z,6.80
2023-05-03T03:10:14.662Z,6.70
2023-05-03T03:12:41.505Z,6.80
2023-05-03T03:15:09.133Z,6.80
2023-05-03T03:17:39.377Z,6.60
2023-05-03T03:20:07.905Z,6.60
2023-05-03T03:22:34.836Z,6.60
2023-05-03T03:25:01.679Z,6.50
2023-05-03T03:27:28.675Z,6.50
2023-05-03T03:29:55.498Z,6.40
2023-05-03T03:32:22.752Z,6.40
2023-05-03T03:34:49.702Z,6.30
2023-05-03T03:37:16.673Z,6.30
2023-05-03T03:39:43.517Z,6.30
2023-05-03T03:42:13.201Z,6.30
2023-05-03T03:44:40.111Z,6.20
2023-05-03T03:47:07.257Z,6.20
2023-05-03T03:49:34.093Z,6.10
2023-05-03T03:52:00.951Z,6.10
2023-05-03T03:54:27.823Z,6.10
2023-05-03T03:56:54.663Z,6.00
2023-05-03T03:59:21.434Z,6.00
2023-05-03T04:01:48.169Z,6.00
2023-05-03T04:04:15.037Z,6.10
2023-05-03T04:06:42.007Z,6.10
2023-05-03T04:09:09.205Z,6.30
2023-05-03T04:11:36.113Z,6.50
2023-05-03T04:14:03.684Z,6.50
2023-05-03T04:16:30.542Z,6.50
2023-05-03T04:18:57.375Z,6.40
2023-05-03T04:21:24.355Z,6.20
2023-05-03T04:23:51.169Z,6.30
2023-05-03T04:26:30.735Z,6.30
2023-05-03T04:28:59.230Z,6.30
2023-05-03T04:31:27.076Z,6.40
2023-05-03T04:33:53.944Z,6.40
2023-05-03T04:36:25.580Z,6.40
2023-05-03T04:38:52.636Z,6.40
2023-05-03T04:41:19.400Z,6.40
2023-05-03T04:43:46.357Z,6.20
2023-05-03T04:46:13.142Z,6.20
2023-05-03T04:48:40.394Z,6.10
2023-05-03T04:51:07.728Z,6.20
2023-05-03T04:53:34.650Z,6.20
2023-05-03T04:56:01.442Z,6.30
2023-05-03T04:58:28.370Z,6.30
2023-05-03T05:00:55.568Z,6.40
2023-05-03T05:03:22.457Z,6.40
2023-05-03T05:05:49.380Z,6.50
2023-05-03T05:08:16.250Z,6.50
2023-05-03T05:10:43.481Z,6.50
2023-05-03T05:13:13.468Z,6.50
2023-05-03T05:15:40.222Z,6.60
2023-05-03T05:18:07.299Z,6.60
2023-05-03T05:20:34.351Z,6.70
2023-05-03T05:23:01.299Z,6.80
2023-05-03T05:25:28.121Z,6.90
2023-05-03T05:27:54.905Z,6.90
2023-05-03T05:30:23.452Z,6.90
2023-05-03T05:32:50.452Z,7.00
2023-05-03T05:35:19.118Z,7.00
2023-05-03T05:37:46.446Z,7.10
2023-05-03T05:40:13.557Z,7.20
2023-05-03T05:42:40.490Z,7.30
2023-05-03T05:45:08.403Z,7.40
2023-05-03T05:47:35.718Z,7.40
2023-05-03T05:50:09.731Z,7.40
2023-05-03T05:52:42.344Z,7.50
2023-05-03T05:55:10.909Z,7.50
2023-05-03T05:57:38.218Z,7.60
2023-05-03T06:00:14.251Z,7.70
2023-05-03T06:02:42.254Z,7.80
2023-05-03T06:05:10.073Z,7.90
2023-05-03T06:07:37.197Z,7.90
2023-05-03T06:10:04.969Z,8.00
2023-05-03T06:12:31.947Z,8.00
2023-05-03T06:15:02.735Z,8.10
2023-05-03T06:17:29.982Z,8.20
2023-05-03T06:19:57.894Z,8.30
2023-05-03T06:22:25.332Z,8.30
2023-05-03T06:24:52.817Z,8.30
2023-05-03T06:27:19.730Z,8.40
2023-05-03T06:29:48.060Z,8.40
2023-05-03T06:32:14.817Z,8.50
2023-05-03T06:34:41.569Z,8.60
2023-05-03T06:37:08.407Z,8.60
2023-05-03T06:39:35.169Z,8.60
2023-05-03T06:42:02.683Z,8.70
2023-05-03T06:44:29.473Z,8.80
2023-05-03T06:46:56.340Z,8.90
2023-05-03T06:49:23.133Z,9.00
2023-05-03T06:51:49.927Z,9.00
2023-05-03T06:54:16.724Z,9.00
2023-05-03T06:56:43.487Z,9.00
2023-05-03T06:59:10.645Z,9.10
2023-05-03T07:01:37.573Z,9.20
2023-05-03T07:04:04.497Z,9.20
2023-05-03T07:06:37.784Z,9.30
2023-05-03T07:09:11.562Z,9.40
2023-05-03T07:11:40.305Z,9.50
2023-05-03T07:14:07.249Z,9.50
2023-05-03T07:16:34.116Z,9.50
2023-05-03T07:19:01.041Z,9.60
2023-05-03T07:21:29.299Z,9.70
2023-05-03T07:23:56.013Z,9.80
2023-05-03T07:26:22.916Z,9.80
2023-05-03T07:28:50.279Z,9.90
2023-05-03T07:31:17.061Z,9.80
2023-05-03T07:33:44.225Z,10.00
2023-05-03T07:36:12.077Z,10.10
2023-05-03T07:38:38.877Z,10.20
2023-05-03T07:41:06.811Z,10.20
2023-05-03T07:43:33.748Z,10.30
2023-05-03T07:46:00.579Z,10.40
2023-05-03T07:48:27.455Z,10.40
2023-05-03T07:50:54.435Z,10.50
2023-05-03T07:53:21.680Z,10.60
2023-05-03T07:55:48.460Z,10.60
2023-05-03T07:58:15.227Z,10.70
2023-05-03T08:00:42.692Z,10.70
2023-05-03T08:03:09.661Z,10.80
2023-05-03T08:05:36.753Z,10.80
2023-05-03T08:08:06.648Z,10.90
2023-05-03T08:10:37.738Z,11.00
2023-05-03T08:13:06.300Z,11.00
2023-05-03T08:15:33.850Z,11.00
2023-05-03T08:18:01.104Z,11.10
2023-05-03T08:20:28.020Z,11.30
2023-05-03T08:22:56.878Z,11.40
2023-05-03T08:25:26.180Z,11.40
2023-05-03T08:27:53.271Z,11.40
2023-05-03T08:30:22.017Z,11.60
2023-05-03T08:32:49.029Z,11.60
2023-05-03T08:35:15.876Z,11.80
2023-05-03T08:37:43.459Z,11.90
2023-05-03T08:40:13.792Z,12.00
2023-05-03T08:42:45.190Z,12.00
2023-05-03T08:45:16.353Z,12.10
2023-05-03T08:47:47.266Z,12.30
2023-05-03T08:50:15.510Z,12.40
2023-05-03T08:52:43.411Z,12.60
2023-05-03T08:55:11.659Z,12.70
2023-05-03T08:57:38.446Z,12.80
2023-05-03T09:00:10.628Z,12.90
2023-05-03T09:02:40.874Z,13.20
2023-05-03T09:33:56.114Z,19.40
2023-05-03T09:36:27.725Z,19.70
2023-05-03T09:39:32.405Z,19.90
2023-05-03T09:42:00.417Z,20.20
2023-05-03T09:44:51.429Z,20.40
2023-05-03T09:47:25.911Z,20.50
2023-05-03T09:49:52.968Z,20.70
2023-05-03T09:52:21.914Z,20.90
2023-05-03T09:54:50.188Z,21.20
2023-05-03T09:57:17.508Z,21.20
2023-05-03T09:59:46.042Z,21.40
2023-05-03T10:02:12.945Z,21.30
2023-05-03T10:04:51.767Z,21.80
2023-05-03T10:07:22.118Z,22.10
2023-05-03T10:09:49.286Z,21.60
2023-05-03T10:12:19.021Z,21.90
2023-05-03T10:14:48.263Z,22.30
2023-05-03T10:17:46.317Z,22.50
2023-05-03T10:20:23.280Z,22.60
2023-05-03T10:23:05.725Z,22.80
2023-05-03T10:25:34.720Z,22.90
2023-05-03T10:28:09.222Z,22.70
2023-05-03T10:30:40.703Z,22.60
2023-05-03T10:33:10.250Z,23.20
2023-05-03T10:35:39.771Z,23.30
2023-05-03T10:38:22.360Z,23.30
2023-05-03T10:40:49.201Z,23.40
2023-05-03T10:43:31.717Z,23.40
2023-05-03T10:46:05.550Z,23.50
2023-05-03T10:48:34.083Z,23.10
2023-05-03T10:51:30.699Z,22.60
2023-05-03T10:53:57.584Z,22.50
2023-05-03T10:56:24.564Z,22.60
2023-05-03T10:58:56.039Z,22.80
2023-05-03T11:01:24.972Z,22.80
2023-05-03T11:03:51.749Z,22.60
2023-05-03T11:06:41.364Z,22.60
2023-05-03T11:09:10.395Z,22.70
2023-05-03T11:11:40.365Z,22.60
2023-05-03T11:14:08.782Z,22.60
2023-05-03T11:16:47.122Z,22.80
2023-05-03T11:19:15.153Z,22.80
2023-05-03T11:21:43.490Z,22.70
2023-05-03T11:24:10.512Z,23.10
2023-05-03T11:26:38.547Z,23.20
2023-05-03T11:29:05.950Z,23.60
2023-05-03T11:31:33.145Z,23.60
2023-05-03T11:34:00.148Z,23.80
2023-05-03T11:36:27.996Z,24.30
2023-05-03T11:38:54.968Z,24.00
2023-05-03T11:41:21.907Z,24.10
2023-05-03T11:43:57.484Z,24.30
2023-05-03T11:46:35.327Z,24.50
2023-05-03T11:49:06.281Z,24.30
2023-05-03T11:51:33.400Z,24.50
2023-05-03T11:54:13.503Z,24.50
2023-05-03T11:56:57.881Z,24.70
2023-05-03T11:59:44.642Z,24.70
2023-05-03T12:02:13.277Z,24.80
2023-05-03T12:04:43.537Z,24.80
2023-05-03T12:07:13.143Z,25.10
2023-05-03T12:09:42.080Z,24.90
2023-05-03T12:14:59.340Z,25.00
2023-05-03T12:17:43.565Z,25.40
2023-05-03T12:20:51.808Z,25.70
2023-05-03T12:23:11.736Z,25.80
2023-05-03T12:25:43.889Z,25.60
2023-05-03T12:30:41.297Z,25.50
2023-05-03T12:33:10.030Z,25.90
2023-05-03T12:35:41.030Z,26.30
2023-05-03T12:38:09.872Z,26.60
2023-05-03T12:40:39.119Z,26.20
2023-05-03T12:43:06.748Z,26.10
2023-05-03T12:45:34.568Z,26.10
2023-05-03T12:48:02.772Z,26.40
2023-05-03T12:50:32.060Z,26.60
2023-05-03T12:53:02.400Z,26.40
2023-05-03T12:55:35.184Z,26.10
2023-05-03T12:58:36.826Z,26.00
2023-05-03T13:01:37.107Z,26.20
2023-05-03T13:03:43.361Z,26.00
2023-05-03T13:06:13.869Z,26.20
2023-05-03T13:08:49.404Z,26.60
2023-05-03T13:11:19.408Z,26.50
2023-05-03T13:13:46.646Z,26.80
2023-05-03T13:16:14.437Z,27.00
2023-05-03T13:18:43.015Z,26.50
2023-05-03T13:21:11.172Z,26.00
2023-05-03T13:23:38.351Z,25.50
2023-05-03T13:26:07.047Z,25.30
2023-05-03T13:28:34.113Z,25.10
2023-05-03T13:31:00.878Z,25.80
2023-05-03T13:33:28.625Z,25.90
2023-05-03T13:35:55.665Z,26.20
2023-05-03T13:38:22.455Z,26.60
2023-05-03T13:40:49.287Z,26.80
2023-05-03T13:43:16.156Z,27.20
2023-05-03T13:45:43.089Z,27.30
2023-05-03T13:48:18.317Z,27.00
2023-05-03T13:50:45.710Z,27.40
2023-05-03T13:53:12.695Z,27.70
2023-05-03T13:55:39.489Z,27.80
2023-05-03T13:58:06.194Z,27.50
2023-05-03T14:00:33.032Z,27.40
2023-05-03T14:02:59.833Z,27.80
2023-05-03T14:05:27.236Z,27.90
2023-05-03T14:07:54.228Z,28.40
2023-05-03T14:10:21.111Z,28.80
2023-05-03T14:12:48.142Z,28.70
2023-05-03T14:15:15.044Z,28.60
2023-05-03T14:17:43.900Z,28.60
2023-05-03T14:20:12.095Z,28.90
2023-05-03T14:22:38.953Z,28.40
2023-05-03T14:25:06.750Z,28.50
2023-05-03T14:27:33.737Z,28.70
2023-05-03T14:30:00.677Z,29.20
2023-05-03T14:32:27.875Z,29.60
2023-05-03T14:34:54.568Z,30.00
2023-05-03T14:37:21.443Z,30.20
2023-05-03T14:39:48.374Z,30.30
2023-05-03T14:42:15.423Z,30.40
2023-05-03T14:44:42.221Z,30.40
2023-05-03T14:47:10.326Z,30.50
2023-05-03T14:49:41.017Z,30.50
2023-05-03T14:52:08.860Z,30.20
2023-05-03T14:54:37.260Z,30.50
2023-05-03T14:57:04.810Z,30.90
2023-05-03T14:59:33.254Z,31.30
2023-05-03T15:02:00.858Z,31.40
2023-05-03T15:04:28.399Z,31.20
2023-05-03T15:06:55.571Z,31.50
2023-05-03T15:09:22.885Z,31.80
2023-05-03T15:11:49.740Z,31.30
2023-05-03T15:14:17.545Z,31.60
2023-05-03T15:16:44.577Z,31.60
2023-05-03T15:19:11.433Z,31.80
2023-05-03T15:21:49.409Z,32.00
2023-05-03T15:24:17.530Z,31.70
2023-05-03T15:26:44.541Z,31.80
2023-05-03T15:29:11.558Z,32.00
2023-05-03T15:31:38.479Z,31.70
2023-05-03T15:34:06.073Z,31.10
2023-05-03T15:36:33.431Z,31.50
2023-05-03T15:39:00.185Z,31.30
2023-05-03T15:41:27.053Z,31.40
2023-05-03T15:43:54.848Z,31.50
2023-05-03T15:46:21.960Z,31.40
2023-05-03T15:48:48.766Z,31.50
2023-05-03T15:51:15.710Z,31.50
2023-05-03T15:53:42.612Z,31.60
2023-05-03T15:56:09.415Z,31.70
2023-05-03T15:58:36.669Z,31.80
2023-05-03T16:01:04.177Z,31.80
2023-05-03T16:03:31.633Z,31.80
2023-05-03T16:05:58.668Z,31.50
2023-05-03T16:08:26.351Z,31.70
2023-05-03T16:10:53.193Z,31.60
2023-05-03T16:13:19.959Z,31.40
2023-05-03T16:15:47.344Z,31.00
2023-05-03T16:18:14.206Z,31.30
2023-05-03T16:20:41.365Z,30.90
2023-05-03T16:23:08.185Z,30.40
2023-05-03T16:25:34.899Z,30.40
2023-05-03T16:28:02.749Z,30.60
2023-05-03T16:30:29.737Z,30.50
2023-05-03T16:32:56.582Z,30.60
2023-05-03T16:35:23.401Z,30.70
2023-05-03T16:37:51.290Z,30.40
2023-05-03T16:40:18.155Z,30.30
2023-05-03T16:42:44.984Z,30.10
2023-05-03T16:45:12.255Z,29.50
2023-05-03T16:47:39.594Z,29.20
2023-05-03T16:50:08.137Z,29.10
2023-05-03T16:52:39.393Z,29.20
2023-05-03T16:55:07.728Z,28.90
2023-05-03T16:57:34.534Z,28.70
2023-05-03T17:00:08.495Z,28.60
2023-05-03T17:02:36.944Z,28.20
2023-05-03T17:05:12.951Z,28.00
2023-05-03T17:07:41.850Z,28.10
2023-05-03T17:10:09.197Z,28.20
2023-05-03T17:12:36.091Z,27.90
2023-05-03T17:15:03.086Z,27.70
2023-05-03T17:17:32.378Z,27.50
2023-05-03T17:19:59.638Z,27.60
2023-05-03T17:22:26.470Z,27.30
2023-05-03T17:24:55.237Z,27.20
2023-05-03T17:27:22.104Z,27.20
2023-05-03T17:29:49.206Z,26.90
2023-05-03T17:32:16.041Z,26.60
2023-05-03T17:34:42.863Z,26.40
2023-05-03T17:37:09.563Z,26.30
2023-05-03T17:39:36.262Z,26.10
2023-05-03T17:42:03.843Z,25.90
2023-05-03T17:44:30.992Z,25.80
2023-05-03T17:46:57.794Z,25.10
2023-05-03T17:49:24.860Z,25.00
2023-05-03T17:51:51.668Z,24.80
2023-05-03T17:54:18.394Z,24.60
2023-05-03T17:56:45.469Z,24.40
2023-05-03T17:59:12.174Z,24.10
2023-05-03T18:01:38.910Z,23.90
2023-05-03T18:04:05.835Z,23.70
2023-05-03T18:06:33.113Z,23.40
2023-05-03T18:08:59.953Z,23.20
2023-05-03T18:11:26.632Z,22.90
2023-05-03T18:13:53.371Z,22.60
2023-05-03T18:16:20.241Z,22.40
2023-05-03T18:18:47.291Z,22.10
2023-05-03T18:21:14.331Z,21.90
2023-05-03T18:23:42.449Z,21.80
2023-05-03T18:26:10.580Z,21.60
2023-05-03T18:28:37.679Z,21.40
2023-05-03T18:31:04.655Z,21.10
2023-05-03T18:33:32.875Z,21.00
2023-05-03T18:35:59.664Z,20.80
2023-05-03T18:38:26.899Z,20.60
2023-05-03T18:40:55.845Z,20.50
2023-05-03T18:43:22.865Z,20.20
2023-05-03T18:45:49.852Z,20.00
2023-05-03T18:48:17.088Z,19.90
2023-05-03T18:50:44.161Z,19.80
2023-05-03T18:53:11.320Z,19.70
2023-05-03T18:55:38.311Z,19.60
2023-05-03T18:58:05.634Z,19.60
2023-05-03T19:00:32.492Z,19.40
2023-05-03T19:02:59.356Z,19.20
2023-05-03T19:05:26.203Z,19.10
2023-05-03T19:07:52.898Z,19.00
2023-05-03T19:10:20.916Z,18.90
2023-05-03T19:12:47.734Z,18.80
2023-05-03T19:15:15.099Z,18.60
2023-05-03T19:17:42.182Z,18.50
2023-05-03T19:20:10.316Z,18.40
2023-05-03T19:22:37.459Z,18.20
2023-05-03T19:25:05.403Z,18.10
2023-05-03T19:27:32.791Z,18.10
2023-05-03T19:29:59.661Z,18.00
2023-05-03T19:32:26.522Z,17.90
2023-05-03T19:34:53.336Z,17.80
2023-05-03T19:37:20.174Z,17.80
2023-05-03T19:39:47.057Z,17.60
2023-05-03T19:42:13.854Z,17.60
2023-05-03T19:44:40.640Z,17.50
2023-05-03T19:47:07.420Z,17.40
2023-05-03T19:49:34.245Z,17.20
2023-05-03T19:52:02.070Z,17.00
2023-05-03T19:54:29.834Z,16.90
2023-05-03T19:56:56.708Z,16.90
2023-05-03T19:59:23.492Z,16.90
2023-05-03T20:01:50.484Z,16.80
2023-05-03T20:04:17.575Z,16.70
2023-05-03T20:06:44.465Z,16.70
2023-05-03T20:09:11.315Z,16.60
2023-05-03T20:11:38.509Z,16.50
2023-05-03T20:14:05.375Z,16.50
2023-05-03T20:16:37.298Z,16.40
2023-05-03T20:19:07.295Z,16.30
2023-05-03T20:21:34.157Z,16.30
2023-05-03T20:24:01.346Z,16.30
2023-05-03T20:26:28.165Z,16.20
2023-05-03T20:28:54.869Z,16.20
2023-05-03T20:31:21.687Z,16.10
2023-05-03T20:33:48.529Z,16.00
2023-05-03T20:36:15.375Z,15.90
2023-05-03T20:38:42.272Z,15.90
2023-05-03T20:41:09.384Z,15.90
2023-05-03T20:43:36.146Z,15.90
2023-05-03T20:46:03.035Z,15.90
2023-05-03T20:48:29.927Z,15.80
2023-05-03T20:50:58.813Z,15.80
2023-05-03T20:53:25.640Z,15.80
2023-05-03T20:56:00.809Z,15.70
2023-05-03T20:58:27.936Z,15.60
2023-05-03T21:00:58.012Z,15.60
2023-05-03T21:03:25.854Z,15.50
2023-05-03T21:05:53.621Z,15.40
2023-05-03T21:08:20.705Z,15.50
2023-05-03T21:10:47.551Z,15.40
2023-05-03T21:13:14.543Z,15.30
2023-05-03T21:15:42.495Z,15.30
2023-05-03T21:18:10.508Z,15.20
2023-05-03T21:20:37.828Z,15.10
2023-05-03T21:23:05.197Z,15.00
2023-05-03T21:25:31.981Z,15.00
2023-05-03T21:27:58.860Z,14.90
2023-05-03T21:30:25.700Z,14.80
2023-05-03T21:32:52.499Z,14.70
2023-05-03T21:35:20.465Z,14.70
2023-05-03T21:37:48.141Z,14.70
2023-05-03T21:40:15.774Z,14.60
2023-05-03T21:42:43.363Z,14.60
2023-05-03T21:45:12.005Z,14.40
2023-05-03T21:47:38.965Z,14.50
2023-05-03T21:50:06.825Z,14.40
2023-05-03T21:52:34.130Z,14.30
2023-05-03T21:55:01.172Z,14.20
2023-05-03T21:57:28.057Z,14.20
2023-05-03T21:59:58.319Z,14.10
2023-05-03T22:02:25.446Z,14.00
2023-05-03T22:04:52.992Z,14.00
2023-05-03T22:07:19.840Z,14.00
2023-05-03T22:09:47.470Z,13.80
2023-05-03T22:14:45.315Z,13.80
2023-05-03T22:17:12.030Z,13.70
2023-05-03T22:19:38.987Z,13.60
2023-05-03T22:22:05.733Z,13.60
2023-05-03T22:24:32.581Z,13.50
2023-05-03T22:26:59.851Z,13.50
2023-05-03T22:29:26.900Z,13.40
2023-05-03T22:31:53.904Z,13.30
2023-05-03T22:34:21.183Z,13.50
2023-05-03T22:36:47.995Z,13.50
2023-05-03T22:39:15.814Z,13.40
2023-05-03T22:41:42.684Z,13.30
2023-05-03T22:44:09.429Z,13.20
2023-05-03T22:46:36.288Z,13.20
2023-05-03T22:49:03.237Z,13.10
2023-05-03T22:51:30.070Z,13.00
2023-05-03T22:53:56.828Z,13.00
2023-05-03T22:56:24.046Z,12.90
2023-05-03T22:58:50.878Z,12.90
2023-05-03T23:01:18.157Z,12.90
2023-05-03T23:03:45.097Z,12.80
2023-05-03T23:06:11.959Z,12.80
2023-05-03T23:08:38.883Z,12.80
2023-05-03T23:11:05.912Z,12.70
2023-05-03T23:13:32.672Z,12.70
2023-05-03T23:15:59.852Z,12.70
2023-05-03T23:18:27.085Z,12.60
2023-05-03T23:20:53.815Z,12.60
2023-05-03T23:23:20.616Z,12.60
2023-05-03T23:25:47.470Z,12.50
2023-05-03T23:28:14.277Z,12.40
2023-05-03T23:30:45.383Z,12.40
